Time;durP1;ratioP1;P1;durP2;ratioP2;P2;SDS_P1;SDS_P2;PMS_P1;PMS_P2;Temp;Humidity;BMP_temperature;BMP_pressure;BME280_temperature;BME280_humidity;BME280_pressure;Samples;Min_cycle;Max_cycle;Signal;HPM_P1;HPM_P2
2022/02/25 00:00:54;;;;;;;1.63;1.00;;;;;;;-141.50;100.00;63355.56;4929424;29;20540;-76
2022/02/25 00:03:21;;;;;;;2.15;0.90;;;;;;;-141.50;100.00;63355.56;4931393;29;20052;-77
2022/02/25 00:05:47;;;;;;;2.83;0.70;;;;;;;-141.50;100.00;63355.56;4932468;29;20075;-77
2022/02/25 00:08:14;;;;;;;1.48;0.82;;;;;;;-141.50;100.00;63355.56;4933052;29;20059;-77
2022/02/25 00:10:41;;;;;;;2.10;0.80;;;;;;;-141.50;100.00;63355.56;4930279;29;20048;-77
2022/02/25 00:13:08;;;;;;;2.67;0.90;;;;;;;-141.50;100.00;63355.56;4931020;29;20554;-77
2022/02/25 00:15:34;;;;;;;1.48;0.90;;;;;;;-141.50;100.00;63355.56;4933337;29;20091;-77
2022/02/25 00:18:01;;;;;;;1.88;1.00;;;;;;;-141.50;100.00;63355.56;4950161;29;20056;-76
2022/02/25 00:20:28;;;;;;;1.13;0.80;;;;;;;-141.50;100.00;63355.56;4935537;29;20111;-77
2022/02/25 00:22:54;;;;;;;1.23;0.80;;;;;;;-141.50;100.00;63355.56;4935727;29;20051;-77
2022/02/25 00:25:21;;;;;;;2.13;0.80;;;;;;;-141.50;100.00;63355.56;4935497;29;20055;-78
2022/02/25 00:27:47;;;;;;;1.70;0.90;;;;;;;-141.50;100.00;63355.56;4937615;29;20058;-78
2022/02/25 00:30:14;;;;;;;1.17;0.80;;;;;;;-141.50;100.00;63355.56;4935753;29;20900;-78
2022/02/25 00:32:41;;;;;;;3.45;0.90;;;;;;;-141.50;100.00;63355.56;4934230;29;20044;-77
2022/02/25 00:35:08;;;;;;;2.35;0.90;;;;;;;-141.50;100.00;63355.56;4935664;29;20119;-78
2022/02/25 00:37:35;;;;;;;1.67;0.85;;;;;;;-141.50;100.00;63355.56;4935870;29;20101;-77
2022/02/25 00:40:04;;;;;;;1.55;0.85;;;;;;;-141.50;100.00;63355.56;4936215;29;20047;-78
2022/02/25 00:42:32;;;;;;;1.88;0.80;;;;;;;-141.50;100.00;63355.56;4936666;29;20139;-77
2022/02/25 00:44:59;;;;;;;2.53;0.95;;;;;;;-141.50;100.00;63355.56;4936104;29;20107;-76
2022/02/25 00:47:25;;;;;;;2.58;1.05;;;;;;;-141.50;100.00;63355.56;4935428;29;20062;-77
2022/02/25 00:49:52;;;;;;;2.30;0.80;;;;;;;-141.50;100.00;63355.56;4936839;29;20056;-77
2022/02/25 00:52:19;;;;;;;4.05;1.10;;;;;;;-141.50;100.00;63355.56;4934403;29;20048;-78
2022/02/25 00:54:46;;;;;;;3.38;1.17;;;;;;;-141.50;100.00;63355.56;4935928;29;20432;-77
2022/02/25 00:57:13;;;;;;;2.17;1.02;;;;;;;-141.50;100.00;63355.56;4934719;29;20055;-77
2022/02/25 00:59:39;;;;;;;2.50;1.10;;;;;;;-141.50;100.00;63355.56;4935009;29;20135;-77
2022/02/25 01:02:06;;;;;;;1.70;0.90;;;;;;;-141.50;100.00;63355.56;4934238;29;20055;-78
2022/02/25 01:04:33;;;;;;;2.17;0.95;;;;;;;-141.50;100.00;63355.56;4938051;29;20055;-78
2022/02/25 01:06:59;;;;;;;1.42;0.90;;;;;;;-141.50;100.00;63355.56;4936771;29;20051;-77
2022/02/25 01:09:26;;;;;;;2.22;1.02;;;;;;;-141.50;100.00;63355.56;4935754;29;20083;-78
2022/02/25 01:11:53;;;;;;;1.70;1.08;;;;;;;-141.50;100.00;63355.56;4934580;29;20067;-78
2022/02/25 01:14:19;;;;;;;3.25;1.17;;;;;;;-141.50;100.00;63355.56;4934237;29;20353;-77
2022/02/25 01:16:46;;;;;;;2.08;1.00;;;;;;;-141.50;100.00;63355.56;4936408;29;20051;-77
2022/02/25 01:19:13;;;;;;;5.68;1.20;;;;;;;-141.50;100.00;63355.56;4936215;29;20055;-77
2022/02/25 01:21:39;;;;;;;3.75;1.20;;;;;;;-141.50;100.00;63355.56;4935470;29;20130;-77
2022/02/25 01:24:06;;;;;;;4.38;1.20;;;;;;;-141.50;100.00;63355.56;4936227;29;20082;-78
2022/02/25 01:26:32;;;;;;;3.70;1.45;;;;;;;-141.50;100.00;63355.56;4950099;28;20130;-77
2022/02/25 01:29:00;;;;;;;4.07;1.38;;;;;;;-141.50;100.00;63355.56;4948821;29;20051;-77
2022/02/25 01:31:26;;;;;;;2.05;1.20;;;;;;;-141.50;100.00;63355.56;4947331;29;20114;-78
2022/02/25 01:33:53;;;;;;;3.55;1.42;;;;;;;-141.50;100.00;63355.56;4934726;29;20052;-77
2022/02/25 01:36:20;;;;;;;3.08;1.38;;;;;;;-141.50;100.00;63355.56;4934835;29;20220;-77
2022/02/25 01:38:46;;;;;;;4.30;1.33;;;;;;;-141.50;100.00;63355.56;4949006;29;20051;-77
2022/02/25 01:41:13;;;;;;;2.97;1.33;;;;;;;-141.50;100.00;63355.56;4934393;29;20051;-76
2022/02/25 01:43:40;;;;;;;3.60;1.52;;;;;;;-141.50;100.00;63355.56;4948705;29;20051;-78
2022/02/25 01:46:06;;;;;;;2.47;1.55;;;;;;;-141.50;100.00;63355.56;4932585;29;20166;-77
2022/02/25 01:48:33;;;;;;;2.45;1.80;;;;;;;-141.50;100.00;63355.56;4935043;29;20051;-76
2022/02/25 01:50:59;;;;;;;4.95;1.42;;;;;;;-141.50;100.00;63355.56;4934821;29;20052;-76
2022/02/25 01:53:26;;;;;;;3.80;1.70;;;;;;;-141.50;100.00;63355.56;4933647;29;20083;-78
2022/02/25 01:55:53;;;;;;;3.28;1.75;;;;;;;-141.50;100.00;63355.56;4948799;29;20405;-78
2022/02/25 01:58:24;;;;;;;3.90;1.90;;;;;;;-141.50;100.00;63355.56;4934378;29;20148;-77
2022/02/25 02:00:52;;;;;;;4.40;2.00;;;;;;;-141.50;100.00;63355.56;4932821;29;20056;-78
2022/02/25 02:03:19;;;;;;;3.53;2.08;;;;;;;-141.50;100.00;63355.56;4931608;29;20043;-78
2022/02/25 02:05:46;;;;;;;2.63;1.92;;;;;;;-141.50;100.00;63355.56;4934269;29;20461;-77
2022/02/25 02:08:13;;;;;;;4.22;1.95;;;;;;;-141.50;100.00;63355.56;4934261;29;20123;-78
2022/02/25 02:10:39;;;;;;;4.00;2.20;;;;;;;-141.50;100.00;63355.56;4935388;29;20051;-77
2022/02/25 02:13:06;;;;;;;4.00;2.25;;;;;;;-141.50;100.00;63355.56;4944033;29;20067;-78
2022/02/25 02:15:33;;;;;;;3.25;2.20;;;;;;;-141.50;100.00;63355.56;4946269;29;20047;-78
2022/02/25 02:18:00;;;;;;;4.30;2.00;;;;;;;-141.50;100.00;63355.56;4936290;29;20563;-77
2022/02/25 02:20:26;;;;;;;6.20;2.38;;;;;;;-141.50;100.00;63355.56;4933765;29;20412;-78
2022/02/25 02:22:54;;;;;;;4.03;2.40;;;;;;;-141.50;100.00;63355.56;4932956;29;20051;-76
2022/02/25 02:25:21;;;;;;;4.43;2.22;;;;;;;-141.50;100.00;63355.56;4935323;29;20401;-79
2022/02/25 02:30:32;;;;;;;3.78;2.40;;;;;;;-141.50;100.00;63355.56;4932643;29;20475;-76
2022/02/25 02:32:59;;;;;;;3.60;2.03;;;;;;;-141.50;100.00;63355.56;4934342;29;20056;-76
2022/02/25 02:35:26;;;;;;;3.15;1.95;;;;;;;-141.50;100.00;63355.56;4933338;29;20613;-77
2022/02/25 02:37:53;;;;;;;4.22;2.08;;;;;;;-141.50;100.00;63355.56;4934099;29;20460;-78
2022/02/25 02:40:20;;;;;;;4.25;2.30;;;;;;;-141.50;100.00;63355.56;4947648;29;20119;-76
2022/02/25 02:42:47;;;;;;;4.32;1.90;;;;;;;-141.50;100.00;63355.56;4932285;29;20059;-76
2022/02/25 02:45:15;;;;;;;3.58;2.08;;;;;;;-141.50;100.00;63355.56;4932696;29;20056;-79
2022/02/25 02:47:42;;;;;;;4.65;2.13;;;;;;;-141.50;100.00;63355.56;4932829;29;20392;-78
2022/02/25 02:50:09;;;;;;;5.03;2.33;;;;;;;-141.50;100.00;63355.56;4935742;29;20508;-77
2022/02/25 02:52:36;;;;;;;3.88;2.53;;;;;;;-141.50;100.00;63355.56;4932439;29;20435;-76
2022/02/25 02:55:04;;;;;;;4.80;2.15;;;;;;;-141.50;100.00;63355.56;4934855;29;20085;-77
2022/02/25 02:57:31;;;;;;;5.72;2.30;;;;;;;-141.50;100.00;63355.56;4939356;29;20048;-76
2022/02/25 02:59:58;;;;;;;4.57;2.28;;;;;;;-141.50;100.00;63355.56;4937034;29;20103;-78
2022/02/25 03:02:25;;;;;;;4.10;2.53;;;;;;;-141.50;100.00;63355.56;4933241;29;20056;-78
2022/02/25 03:04:52;;;;;;;9.38;2.72;;;;;;;-141.50;100.00;63355.56;4933130;29;20043;-77
2022/02/25 03:07:18;;;;;;;5.55;2.78;;;;;;;-141.50;100.00;63355.56;4933477;29;20110;-78
2022/02/25 03:09:45;;;;;;;4.63;2.60;;;;;;;-141.50;100.00;63355.56;4934646;29;20064;-77
2022/02/25 03:12:12;;;;;;;6.78;2.72;;;;;;;-141.50;100.00;63355.56;4932342;29;20059;-78
2022/02/25 03:14:38;;;;;;;5.82;2.85;;;;;;;-141.50;100.00;63355.56;4948124;29;20048;-78
2022/02/25 03:17:05;;;;;;;4.28;2.78;;;;;;;-141.50;100.00;63355.56;4933625;29;20074;-77
2022/02/25 03:19:35;;;;;;;7.07;2.60;;;;;;;-141.50;100.00;63355.56;4934881;29;20075;-77
2022/02/25 03:22:01;;;;;;;5.45;2.92;;;;;;;-141.50;100.00;63355.56;4931458;29;20273;-77
2022/02/25 03:24:28;;;;;;;8.13;3.15;;;;;;;-141.50;100.00;63355.56;4931761;29;20055;-77
2022/02/25 03:26:54;;;;;;;8.93;3.40;;;;;;;-141.50;100.00;63355.56;4934375;29;20048;-78
2022/02/25 03:29:21;;;;;;;4.57;3.20;;;;;;;-141.50;100.00;63355.56;4930526;29;20051;-79
2022/02/25 03:31:47;;;;;;;6.78;3.28;;;;;;;-141.50;100.00;63355.56;4945830;29;20051;-76
2022/02/25 03:34:15;;;;;;;5.35;3.03;;;;;;;-141.50;100.00;63355.56;4934096;29;20047;-78
2022/02/25 03:36:41;;;;;;;7.22;3.17;;;;;;;-141.50;100.00;63355.56;4932657;29;20047;-78
2022/02/25 03:39:08;;;;;;;6.05;3.55;;;;;;;-141.50;100.00;63355.56;4930987;29;20063;-77
2022/02/25 03:41:35;;;;;;;8.13;4.00;;;;;;;-141.50;100.00;63355.56;4933506;29;20571;-78
2022/02/25 03:44:02;;;;;;;5.85;3.85;;;;;;;-141.50;100.00;63355.56;4937308;29;20054;-79
2022/02/25 03:46:28;;;;;;;8.02;4.35;;;;;;;-141.50;100.00;63355.56;4936662;29;20447;-76
2022/02/25 03:48:55;;;;;;;9.10;4.72;;;;;;;-141.50;100.00;63355.56;4936303;29;20059;-77
2022/02/25 03:51:23;;;;;;;9.10;4.80;;;;;;;-141.50;100.00;63355.56;4932858;29;20107;-78
2022/02/25 03:53:50;;;;;;;8.82;5.07;;;;;;;-141.50;100.00;63355.56;4933264;29;20107;-77
2022/02/25 03:56:16;;;;;;;10.13;5.28;;;;;;;-141.50;100.00;63355.56;4940781;29;20127;-78
2022/02/25 03:58:43;;;;;;;9.98;5.40;;;;;;;-141.50;100.00;63355.56;4940262;29;20087;-78
2022/02/25 04:01:10;;;;;;;8.15;5.15;;;;;;;-141.50;100.00;63355.56;4937461;29;20735;-78
2022/02/25 04:03:36;;;;;;;9.10;5.00;;;;;;;-141.50;100.00;63355.56;4941170;29;20081;-78
2022/02/25 04:06:03;;;;;;;10.38;4.70;;;;;;;-141.50;100.00;63355.56;4942430;29;20065;-78
2022/02/25 04:08:31;;;;;;;9.48;4.93;;;;;;;-141.50;100.00;63355.56;4941564;29;20091;-77
2022/02/25 04:10:57;;;;;;;10.98;4.75;;;;;;;-141.50;100.00;63355.56;4940749;29;20058;-77
2022/02/25 04:13:25;;;;;;;9.93;4.43;;;;;;;-141.50;100.00;63355.56;4940282;29;20061;-77
2022/02/25 04:15:52;;;;;;;7.22;4.13;;;;;;;-141.50;100.00;63355.56;4938792;29;20083;-78
2022/02/25 04:18:18;;;;;;;8.18;4.60;;;;;;;-141.50;100.00;63355.56;4935774;29;20287;-77
2022/02/25 04:20:45;;;;;;;9.00;4.28;;;;;;;-141.50;100.00;63355.56;4934746;29;20506;-78
2022/02/25 04:23:12;;;;;;;7.97;3.83;;;;;;;-141.50;100.00;63355.56;4933808;29;20056;-78
2022/02/25 04:25:39;;;;;;;8.18;4.15;;;;;;;-141.50;100.00;63355.56;4932964;29;20079;-77
2022/02/25 04:28:05;;;;;;;8.40;4.15;;;;;;;-141.50;100.00;63355.56;4932031;29;20230;-77
2022/02/25 04:30:32;;;;;;;7.03;3.90;;;;;;;-141.50;100.00;63355.56;4929580;29;20051;-78
2022/02/25 04:32:59;;;;;;;6.80;4.05;;;;;;;-141.50;100.00;63355.56;4932638;29;20122;-78
2022/02/25 04:35:26;;;;;;;7.78;3.92;;;;;;;-141.50;100.00;63355.56;4935017;29;20059;-77
2022/02/25 04:37:52;;;;;;;5.65;3.72;;;;;;;-141.50;100.00;63355.56;4933585;29;20059;-78
2022/02/25 04:40:20;;;;;;;9.57;3.60;;;;;;;-141.50;100.00;63355.56;4934311;29;20047;-77
2022/02/25 04:42:47;;;;;;;8.88;3.60;;;;;;;-141.50;100.00;63355.56;4932308;29;20440;-77
2022/02/25 04:45:13;;;;;;;6.53;3.38;;;;;;;-141.50;100.00;63355.56;4931411;29;20476;-77
2022/02/25 04:47:40;;;;;;;9.68;3.35;;;;;;;-141.50;100.00;63355.56;4932490;29;20533;-78
2022/02/25 04:50:08;;;;;;;10.10;3.53;;;;;;;-141.50;100.00;63355.56;4933310;29;20051;-78
2022/02/25 04:52:38;;;;;;;5.28;3.35;;;;;;;-141.50;100.00;63355.56;4930499;29;20058;-78
2022/02/25 04:55:05;;;;;;;9.75;2.90;;;;;;;-141.50;100.00;63355.56;4931093;29;20091;-78
2022/02/25 04:57:32;;;;;;;7.63;3.22;;;;;;;-141.50;100.00;63355.56;4931272;29;20441;-77
2022/02/25 04:59:58;;;;;;;4.70;2.80;;;;;;;-141.50;100.00;63355.56;4930465;29;20079;-77
2022/02/25 05:02:27;;;;;;;13.38;3.10;;;;;;;-141.50;100.00;63355.56;4933827;29;20066;-77
2022/02/25 05:04:56;;;;;;;4.45;2.30;;;;;;;-141.50;100.00;63355.56;4935559;29;20122;-77
2022/02/25 05:07:25;;;;;;;3.40;2.22;;;;;;;-141.50;100.00;63355.56;4935343;29;20051;-77
2022/02/25 05:09:51;;;;;;;3.22;2.00;;;;;;;-141.50;100.00;63355.56;4934124;29;20055;-78
2022/02/25 05:12:18;;;;;;;5.15;2.22;;;;;;;-141.50;100.00;63355.56;4932133;29;20059;-78
2022/02/25 05:20:24;;;;;;;3.35;1.80;;;;;;;-141.50;100.00;63355.56;4942117;29;20120;-75
2022/02/25 05:22:56;;;;;;;2.83;1.92;;;;;;;-141.50;100.00;63355.56;4939665;29;20035;-79
2022/02/25 05:25:24;;;;;;;7.20;1.95;;;;;;;-141.50;100.00;63355.56;4955445;29;20052;-79
2022/02/25 05:27:52;;;;;;;4.85;1.83;;;;;;;-141.50;100.00;63355.56;4946918;29;20048;-77
2022/02/25 05:30:19;;;;;;;2.65;1.75;;;;;;;-141.50;100.00;63355.56;4932231;29;20271;-78
2022/02/25 05:32:48;;;;;;;3.83;1.90;;;;;;;-141.50;100.00;63355.56;4935232;29;20138;-77
2022/02/25 05:35:15;;;;;;;5.78;1.60;;;;;;;-141.50;100.00;63355.56;4934973;29;20075;-77
2022/02/25 05:37:43;;;;;;;5.28;1.60;;;;;;;-141.50;100.00;63355.56;4933542;29;20571;-77
2022/02/25 05:40:12;;;;;;;4.43;1.70;;;;;;;-141.50;100.00;63355.56;4934553;29;20468;-77
2022/02/25 05:42:41;;;;;;;3.60;1.30;;;;;;;-141.50;100.00;63355.56;4933428;29;20139;-77
2022/02/25 05:45:09;;;;;;;8.30;1.70;;;;;;;-141.50;100.00;63355.56;4934909;29;20466;-77
2022/02/25 05:47:36;;;;;;;4.28;1.40;;;;;;;-141.50;100.00;63355.56;4938148;29;20080;-79
2022/02/25 05:50:05;;;;;;;6.32;1.50;;;;;;;-141.50;100.00;63355.56;4937597;29;20111;-77
2022/02/25 05:52:32;;;;;;;4.03;1.45;;;;;;;-141.50;100.00;63355.56;4934921;29;20114;-77
2022/02/25 05:54:58;;;;;;;4.07;1.20;;;;;;;-141.50;100.00;63355.56;4936029;29;20071;-79
2022/02/25 05:57:25;;;;;;;3.45;1.10;;;;;;;-141.50;100.00;63355.56;4936253;29;20079;-77
2022/02/25 05:59:53;;;;;;;2.92;1.17;;;;;;;-141.50;100.00;63355.56;4933568;29;20082;-77
2022/02/25 06:02:21;;;;;;;4.20;1.30;;;;;;;-141.50;100.00;63355.56;4934119;29;20057;-78
2022/02/25 06:04:48;;;;;;;3.22;1.20;;;;;;;-141.50;100.00;63355.56;4936057;29;20047;-78
2022/02/25 06:07:15;;;;;;;5.18;1.40;;;;;;;-141.50;100.00;63355.56;4934916;29;20530;-76
2022/02/25 06:09:41;;;;;;;3.25;1.52;;;;;;;-141.50;100.00;63355.56;4934045;29;20051;-78
2022/02/25 06:12:08;;;;;;;4.00;1.20;;;;;;;-141.50;100.00;63355.56;4931498;29;20083;-77
2022/02/25 06:14:34;;;;;;;5.03;1.55;;;;;;;-141.50;100.00;63355.56;4932739;29;20075;-76
2022/02/25 06:17:02;;;;;;;3.88;1.63;;;;;;;-141.50;100.00;63355.56;4933146;29;20114;-77
2022/02/25 06:19:29;;;;;;;6.18;1.50;;;;;;;-141.50;100.00;63355.56;4934011;29;20586;-79
2022/02/25 06:21:55;;;;;;;4.22;1.23;;;;;;;-141.50;100.00;63355.56;4933463;29;20087;-77
2022/02/25 06:24:22;;;;;;;7.72;1.50;;;;;;;-141.50;100.00;63355.56;4934268;29;20043;-77
2022/02/25 06:26:48;;;;;;;3.05;1.45;;;;;;;-141.50;100.00;63355.56;4933726;29;20222;-76
2022/02/25 06:29:17;;;;;;;6.65;1.67;;;;;;;-141.50;100.00;63355.56;4934173;29;20150;-77
2022/02/25 06:31:43;;;;;;;4.63;1.58;;;;;;;-141.50;100.00;63355.56;4930699;29;20059;-74
2022/02/25 06:34:10;;;;;;;3.22;1.33;;;;;;;-141.50;100.00;63355.56;4933532;29;20047;-76
2022/02/25 06:36:37;;;;;;;3.45;1.58;;;;;;;-141.50;100.00;63355.56;4934345;29;20134;-76
2022/02/25 06:39:04;;;;;;;5.75;1.55;;;;;;;-141.50;100.00;63355.56;4932635;29;20047;-77
2022/02/25 06:41:31;;;;;;;5.30;1.60;;;;;;;-141.50;100.00;63355.56;4933853;29;20052;-79
2022/02/25 06:43:57;;;;;;;5.78;1.42;;;;;;;-141.50;100.00;63355.56;4935248;29;20647;-77
2022/02/25 06:46:24;;;;;;;3.85;1.63;;;;;;;-141.50;100.00;63355.56;4933884;29;20071;-78
2022/02/25 06:48:51;;;;;;;4.43;1.52;;;;;;;-141.50;100.00;63355.56;4936667;29;20162;-77
2022/02/25 06:51:17;;;;;;;5.30;1.45;;;;;;;-141.50;100.00;63355.56;4935055;29;20521;-74
2022/02/25 06:53:44;;;;;;;4.97;1.50;;;;;;;-141.50;100.00;63355.56;4932952;29;20456;-78
2022/02/25 06:56:10;;;;;;;4.35;1.45;;;;;;;-141.50;100.00;63355.56;4934114;29;20056;-78
2022/02/25 06:58:38;;;;;;;6.28;1.73;;;;;;;-141.50;100.00;63355.56;4935332;29;20138;-76
2022/02/25 07:01:05;;;;;;;3.85;1.83;;;;;;;-141.50;100.00;63355.56;4931047;29;20067;-78
2022/02/25 07:03:33;;;;;;;6.05;1.77;;;;;;;-141.50;100.00;63355.56;4935227;29;20528;-78
2022/02/25 07:05:59;;;;;;;5.88;1.60;;;;;;;-141.50;100.00;63355.56;4936187;29;20056;-78
2022/02/25 07:08:26;;;;;;;5.07;1.30;;;;;;;-141.50;100.00;63355.56;4937616;29;20110;-78
2022/02/25 07:10:53;;;;;;;4.07;1.38;;;;;;;-141.50;100.00;63355.56;4934762;29;20087;-78
2022/02/25 07:13:19;;;;;;;2.03;1.23;;;;;;;-141.50;100.00;63355.56;4933617;29;20079;-76
2022/02/25 07:15:46;;;;;;;5.70;1.52;;;;;;;-141.50;100.00;63355.56;4932448;29;20067;-77
2022/02/25 07:18:16;;;;;;;2.88;1.40;;;;;;;-141.50;100.00;63355.56;4934966;29;20059;-77
2022/02/25 07:20:43;;;;;;;4.95;1.17;;;;;;;-141.50;100.00;63355.56;4938834;29;20107;-78
2022/02/25 07:23:10;;;;;;;4.90;1.60;;;;;;;-141.50;100.00;63355.56;4936055;29;20060;-77
2022/02/25 07:25:37;;;;;;;7.32;1.50;;;;;;;-141.50;100.00;63355.56;4934668;29;20082;-75
2022/02/25 07:28:06;;;;;;;5.18;1.50;;;;;;;-141.50;100.00;63355.56;4932489;29;20043;-76
2022/02/25 07:30:33;;;;;;;3.83;1.50;;;;;;;-141.50;100.00;63355.56;4930525;29;20385;-76
2022/02/25 07:33:00;;;;;;;5.07;1.75;;;;;;;-141.50;100.00;63355.56;4938141;29;20079;-78
2022/02/25 07:35:28;;;;;;;2.65;1.52;;;;;;;-141.50;100.00;63355.56;4940156;29;20077;-78
2022/02/25 07:37:55;;;;;;;3.10;1.50;;;;;;;-141.50;100.00;63355.56;4932982;29;20497;-76
2022/02/25 07:40:24;;;;;;;4.03;1.67;;;;;;;-141.50;100.00;63355.56;4930720;29;20075;-76
2022/02/25 07:42:50;;;;;;;2.80;1.33;;;;;;;-141.50;100.00;63355.56;4931826;29;20489;-78
2022/02/25 07:45:17;;;;;;;6.57;1.63;;;;;;;-141.50;100.00;63355.56;4932969;29;20055;-78
2022/02/25 07:47:44;;;;;;;4.32;1.33;;;;;;;-141.50;100.00;63355.56;4932539;29;20056;-78
2022/02/25 07:50:13;;;;;;;5.22;1.48;;;;;;;-141.50;100.00;63355.56;4934615;29;20056;-76
2022/02/25 07:52:41;;;;;;;5.93;1.33;;;;;;;-141.50;100.00;63355.56;4934693;29;20492;-78
2022/02/25 07:55:09;;;;;;;2.80;1.30;;;;;;;-141.50;100.00;63355.56;4946927;29;20216;-78
2022/02/25 07:57:36;;;;;;;3.80;1.38;;;;;;;-141.50;100.00;63355.56;4954079;29;20271;-77
2022/02/25 08:00:21;;;;;;;6.18;1.55;;;;;;;-141.50;100.00;63355.56;4949431;29;20060;-77
2022/02/25 08:02:48;;;;;;;10.27;1.75;;;;;;;-141.50;100.00;63355.56;4937256;29;20171;-76
2022/02/25 08:05:15;;;;;;;6.40;1.67;;;;;;;-141.50;100.00;63355.56;4933128;29;20047;-78
2022/02/25 08:07:43;;;;;;;6.25;1.77;;;;;;;-141.50;100.00;63355.56;4933150;29;20055;-77
2022/02/25 08:10:10;;;;;;;4.32;1.95;;;;;;;-141.50;100.00;63355.56;4930236;29;20087;-77
2022/02/25 08:12:39;;;;;;;8.50;1.67;;;;;;;-141.50;100.00;63355.56;4930437;29;20056;-77
2022/02/25 08:15:07;;;;;;;4.97;1.50;;;;;;;-141.50;100.00;63355.56;4930572;29;20056;-77
2022/02/25 08:17:34;;;;;;;6.72;1.67;;;;;;;-141.50;100.00;63355.56;4930338;29;20440;-77
2022/02/25 08:20:01;;;;;;;8.60;1.52;;;;;;;-141.50;100.00;63355.56;4931961;29;20055;-76
2022/02/25 08:22:31;;;;;;;7.28;1.50;;;;;;;-141.50;100.00;63355.56;4931955;29;20107;-76
2022/02/25 08:24:58;;;;;;;7.18;1.50;;;;;;;-141.50;100.00;63355.56;4931580;29;20048;-75
2022/02/25 08:27:24;;;;;;;8.30;1.55;;;;;;;-141.50;100.00;63355.56;4932521;29;20107;-77
2022/02/25 08:29:51;;;;;;;6.05;1.40;;;;;;;-141.50;100.00;63355.56;4933177;29;20052;-77
2022/02/25 08:32:18;;;;;;;6.20;1.90;;;;;;;-141.50;100.00;63355.56;4934978;29;20054;-77
2022/02/25 08:34:45;;;;;;;6.35;1.55;;;;;;;-141.50;100.00;63355.56;4936021;29;20048;-76
2022/02/25 08:37:14;;;;;;;4.82;1.45;;;;;;;-141.50;100.00;63355.56;4948565;29;20214;-77
2022/02/25 08:39:41;;;;;;;4.88;1.50;;;;;;;-141.50;100.00;63355.56;4956068;29;20055;-77
2022/02/25 08:42:07;;;;;;;5.97;1.52;;;;;;;-141.50;100.00;63355.56;4935218;29;20115;-78
2022/02/25 08:44:36;;;;;;;5.50;1.73;;;;;;;-141.50;100.00;63355.56;4934859;29;20118;-77
2022/02/25 08:47:03;;;;;;;5.10;1.70;;;;;;;-141.50;100.00;63355.56;4935144;29;20135;-77
2022/02/25 08:49:30;;;;;;;7.28;1.60;;;;;;;-141.50;100.00;63355.56;4936520;29;20055;-76
2022/02/25 08:51:57;;;;;;;7.82;1.60;;;;;;;-141.50;100.00;63355.56;4933740;29;20055;-77
2022/02/25 08:54:29;;;;;;;4.18;1.48;;;;;;;-141.50;100.00;63355.56;4934246;29;20048;-78
2022/02/25 08:56:56;;;;;;;5.90;1.63;;;;;;;-141.50;100.00;63355.56;4935224;29;20122;-77
2022/02/25 08:59:22;;;;;;;5.75;1.60;;;;;;;-141.50;100.00;63355.56;4934648;29;20083;-78
2022/02/25 09:01:53;;;;;;;4.85;1.50;;;;;;;-141.50;100.00;63355.56;4933838;29;20051;-76
2022/02/25 09:04:20;;;;;;;5.35;2.10;;;;;;;-141.50;100.00;63355.56;4937047;29;20135;-78
2022/02/25 09:06:47;;;;;;;5.93;1.42;;;;;;;-141.50;100.00;63355.56;4936392;29;20209;-77
2022/02/25 09:09:14;;;;;;;4.80;1.60;;;;;;;-141.50;100.00;63355.56;4940650;29;20099;-78
2022/02/25 09:11:43;;;;;;;6.28;1.60;;;;;;;-141.50;100.00;63355.56;4933980;29;20059;-77
2022/02/25 09:14:10;;;;;;;5.70;1.95;;;;;;;-141.50;100.00;63355.56;4931853;29;20475;-78
2022/02/25 09:16:36;;;;;;;4.15;1.83;;;;;;;-141.50;100.00;63355.56;4933477;29;20055;-77
2022/02/25 09:19:03;;;;;;;3.30;1.63;;;;;;;-141.50;100.00;63355.56;4934110;29;20051;-77
2022/02/25 09:21:30;;;;;;;5.32;1.67;;;;;;;-141.50;100.00;63355.56;4935354;29;20055;-76
2022/02/25 09:23:57;;;;;;;5.18;1.60;;;;;;;-141.50;100.00;63355.56;4933288;29;20512;-78
2022/02/25 09:26:24;;;;;;;5.30;1.60;;;;;;;-141.50;100.00;63355.56;4935261;29;20496;-77
2022/02/25 09:28:51;;;;;;;5.35;1.70;;;;;;;-141.50;100.00;63355.56;4933892;29;20052;-75
2022/02/25 09:31:19;;;;;;;4.80;1.63;;;;;;;-141.50;100.00;63355.56;4934190;29;20147;-76
2022/02/25 09:33:48;;;;;;;1.92;1.17;;;;;;;-141.50;100.00;63355.56;4935139;29;20146;-77
2022/02/25 09:36:14;;;;;;;5.03;1.73;;;;;;;-141.50;100.00;63355.56;4935058;29;20461;-77
2022/02/25 09:38:41;;;;;;;9.77;2.00;;;;;;;-141.50;100.00;63355.56;4935371;29;20122;-78
2022/02/25 09:41:08;;;;;;;6.95;2.17;;;;;;;-141.50;100.00;63355.56;4937935;29;20082;-78
2022/02/25 09:43:36;;;;;;;6.25;1.60;;;;;;;-141.50;100.00;63355.56;4936571;29;20059;-77
2022/02/25 09:46:05;;;;;;;4.32;1.40;;;;;;;-141.50;100.00;63355.56;4935352;29;20052;-77
2022/02/25 09:48:33;;;;;;;11.82;1.85;;;;;;;-141.50;100.00;63355.56;4935692;29;20091;-79
2022/02/25 09:50:59;;;;;;;6.72;1.60;;;;;;;-141.50;100.00;63355.56;4934642;29;20143;-77
2022/02/25 09:53:26;;;;;;;5.65;1.38;;;;;;;-141.50;100.00;63355.56;4932937;29;20067;-77
2022/02/25 09:55:53;;;;;;;6.72;1.55;;;;;;;-141.50;100.00;63355.56;4933316;29;20052;-78
2022/02/25 09:58:20;;;;;;;5.68;1.55;;;;;;;-141.50;100.00;63355.56;4934184;29;20063;-78
2022/02/25 10:00:47;;;;;;;5.00;1.45;;;;;;;-141.50;100.00;63355.56;4933446;29;20102;-77
2022/02/25 10:03:17;;;;;;;5.53;1.60;;;;;;;-141.50;100.00;63355.56;4934866;29;20093;-77
2022/02/25 10:05:45;;;;;;;8.00;1.70;;;;;;;-141.50;100.00;63355.56;4934805;29;20052;-77
2022/02/25 10:08:15;;;;;;;6.38;1.70;;;;;;;-141.50;100.00;63355.56;4933804;29;20051;-78
2022/02/25 10:10:44;;;;;;;10.15;1.30;;;;;;;-141.50;100.00;63355.56;4933043;29;20242;-77
2022/02/25 10:13:12;;;;;;;5.22;1.50;;;;;;;-141.50;100.00;63355.56;4934141;29;20055;-77
2022/02/25 10:15:41;;;;;;;5.22;1.20;;;;;;;-141.50;100.00;63355.56;4932711;29;20085;-80
2022/02/25 10:18:17;;;;;;;4.55;1.38;;;;;;;-141.50;100.00;63355.56;4934547;29;20135;-77
2022/02/25 10:20:45;;;;;;;4.63;1.30;;;;;;;-141.50;100.00;63355.56;4935183;29;20121;-78
2022/02/25 10:23:18;;;;;;;6.40;1.27;;;;;;;-141.50;100.00;63355.56;4933616;29;20126;-77
2022/02/25 10:25:45;;;;;;;4.95;1.15;;;;;;;-141.50;100.00;63355.56;4934059;29;20044;-77
2022/02/25 10:28:12;;;;;;;7.53;1.20;;;;;;;-141.50;100.00;63355.56;4932157;29;20059;-77
2022/02/25 10:30:39;;;;;;;5.47;1.38;;;;;;;-141.50;100.00;63355.56;4932060;29;20527;-76
2022/02/25 10:33:06;;;;;;;4.13;1.23;;;;;;;-141.50;100.00;63355.56;4933800;29;20133;-79
2022/02/25 10:35:38;;;;;;;8.43;1.27;;;;;;;-141.50;100.00;63355.56;4934307;29;20063;-76
2022/02/25 10:38:17;;;;;;;3.10;0.90;;;;;;;-141.50;100.00;63355.56;4935185;29;20060;-77
2022/02/25 10:40:46;;;;;;;6.38;1.25;;;;;;;-141.50;100.00;63355.56;4933598;29;20086;-76
2022/02/25 10:43:22;;;;;;;5.60;1.20;;;;;;;-141.50;100.00;63355.56;4933547;29;20067;-79
2022/02/25 10:45:54;;;;;;;6.05;1.42;;;;;;;-141.50;100.00;63355.56;4932519;29;20590;-77
2022/02/25 10:48:23;;;;;;;5.88;1.10;;;;;;;-141.50;100.00;63355.56;4932004;29;20493;-79
2022/02/25 10:50:53;;;;;;;5.03;1.13;;;;;;;-141.50;100.00;63355.56;4934390;29;20102;-78
2022/02/25 10:53:28;;;;;;;3.97;1.20;;;;;;;-141.50;100.00;63355.56;4932923;29;20076;-77
2022/02/25 10:56:12;;;;;;;4.70;1.25;;;;;;;-141.50;100.00;63355.56;4933388;29;20200;-77
2022/02/25 10:58:45;;;;;;;6.38;1.55;;;;;;;-141.50;100.00;63355.56;4934088;29;20098;-79
2022/02/25 11:01:15;;;;;;;6.05;1.27;;;;;;;-141.50;100.00;63355.56;4933476;29;20483;-78
2022/02/25 11:03:57;;;;;;;8.25;1.00;;;;;;;-141.50;100.00;63355.56;4935350;29;20079;-76
2022/02/25 11:06:24;;;;;;;6.53;1.30;;;;;;;-141.50;100.00;63355.56;4934996;29;20070;-76
2022/02/25 11:08:57;;;;;;;6.43;1.15;;;;;;;-141.50;100.00;63355.56;4933750;29;20091;-78
2022/02/25 11:11:25;;;;;;;6.43;1.02;;;;;;;-141.50;100.00;63355.56;4934325;29;20495;-77
2022/02/25 11:13:52;;;;;;;4.75;1.17;;;;;;;-141.50;100.00;63355.56;4933428;29;20063;-79
2022/02/25 11:16:20;;;;;;;7.60;1.20;;;;;;;-141.50;100.00;63355.56;4932794;29;20067;-77
2022/02/25 11:19:08;;;;;;;5.43;1.30;;;;;;;-141.50;100.00;63355.56;4935295;29;20079;-77